Jacamar Arrow — C6YT3 — position and weather

sailwx.info

Track history (hours):
 
Tides and Currents Weather Stations Pressure Air Temp Water Temp Dewpoint Dewpoint Depression Visibility Wind Speed Wind Dir Waves Ship Positions

Jacamar Arrow

Last reported at 2018-Jun-23 00:56 UTC. Time now 2018-Jun-23 00:57 UTC.
Position S 23°58' W 046°18'.

Length 199 m; draft 8.9 m.

Type: Cargo ship. MMSI: 311044400.

Date/timePositionNaut miles runAvg speedWind from/ knotsBaromVisibWave heightAir tempDewpointWater temp
2018-Jun-23 00:56S 23°58' W 046°18'0 0.0
2018-Jun-23 00:26S 23°58' W 046°18'0 0.0
2018-Jun-22 22:50S 23°58' W 046°18'0 0.0
2018-Jun-22 22:29S 23°58' W 046°18'1 2.7
2018-Jun-22 21:59S 23°59' W 046°17'3 7.2
2018-Jun-22 21:30S 24°01' W 046°20'4 8.4
2018-Jun-22 21:00S 24°05' W 046°22'3 6.8
2018-Jun-22 20:30S 24°08' W 046°22'3 5.7
2018-Jun-22 19:59S 24°11' W 046°21'3 7.1
2018-Jun-22 19:30S 24°14' W 046°20'1 0.8
2018-Jun-22 18:52S 24°14' W 046°19'0 0.0
2018-Jun-22 18:28S 24°14' W 046°19'0 0.0
2018-Jun-22 17:58S 24°14' W 046°19'0 0.0
2018-Jun-22 17:28S 24°14' W 046°19'0 0.1
2018-Jun-22 16:58S 24°14' W 046°19'0 0.0
2018-Jun-22 16:28S 24°14' W 046°19'0 0.0
2018-Jun-22 15:58S 24°14' W 046°19'0 0.0
2018-Jun-22 15:28S 24°14' W 046°19'0 0.0
2018-Jun-22 14:58S 24°14' W 046°19'0 0.0
2018-Jun-22 14:28S 24°15' W 046°19'0 0.0
2018-Jun-22 13:58S 24°14' W 046°19'0 0.1
2018-Jun-22 13:28S 24°14' W 046°19'0 0.0
2018-Jun-22 12:58S 24°14' W 046°19'0 0.0
2018-Jun-22 12:22S 24°14' W 046°19'0 0.0
2018-Jun-22 11:58S 24°14' W 046°19'0 0.1
2018-Jun-22 11:22S 24°15' W 046°19'0 0.1
2018-Jun-22 10:58S 24°14' W 046°19'0 0.1
2018-Jun-22 10:28S 24°15' W 046°19'0 0.1
2018-Jun-22 09:58S 24°15' W 046°19'0 0.1
2018-Jun-22 09:28S 24°15' W 046°19'0 0.0
2018-Jun-22 08:46S 24°15' W 046°19'0 0.1
2018-Jun-22 08:28S 24°15' W 046°19'0 0.1
2018-Jun-22 07:55S 24°15' W 046°19'0 0.0
2018-Jun-22 07:28S 24°15' W 046°19'0 0.1
2018-Jun-22 06:58S 24°15' W 046°19'0 0.1
2018-Jun-22 06:28S 24°15' W 046°19'0 0.1
2018-Jun-22 05:58S 24°15' W 046°19'0 0.1
2018-Jun-22 05:28S 24°15' W 046°19'0 0.1
2018-Jun-22 04:58S 24°15' W 046°19'0 0.0
2018-Jun-22 04:22S 24°15' W 046°19'0 0.0
2018-Jun-22 03:58S 24°15' W 046°19'0 0.0
2018-Jun-22 03:28S 24°15' W 046°19'0 0.2
2018-Jun-22 02:58S 24°15' W 046°19'1 1.3
2018-Jun-22 02:27S 24°15' W 046°20'2 4.9
2018-Jun-22 02:00S 24°17' W 046°20'4 8.7
2018-Jun-22 01:31S 24°21' W 046°22'612.4
2018-Jun-22 01:00S 24°27' W 046°24'713.7
2018-Jun-22 00:29S 24°34' W 046°27'613.8
2018-Jun-22 00:01S 24°40' W 046°29'713.8
2018-Jun-21 23:30S 24°47' W 046°32'813.8
2018-Jun-21 22:53S 24°54' W 046°36'513.8
2018-Jun-21 22:30S 24°59' W 046°38'714.0
2018-Jun-21 22:00S 25°05' W 046°42'714.2
2018-Jun-21 21:31S 25°12' W 046°45'714.2
2018-Jun-21 21:00S 25°18' W 046°48'714.1
2018-Jun-21 20:30S 25°25' W 046°50'3213.9
2018-Jun-21 18:10S 25°57' W 046°59'1513.8
2018-Jun-21 17:05S 26°11' W 047°04'113.6
2018-Jun-21 17:00S 26°12' W 047°04'5313.6
2018-Jun-21 13:06S 27°02' W 047°24'213.0
2018-Jun-21 12:57S 27°04' W 047°25'  
Track history (hours):
 
Tides and Currents Weather Stations Pressure Air Temp Water Temp Dewpoint Dewpoint Depression Visibility Wind Speed Wind Dir Waves Ship Positions

Jacamar Arrow

Last reported at 2018-Jun-23 00:56 UTC. Time now 2018-Jun-23 00:57 UTC.
Position S 23°58' W 046°18'.

Length 199 m; draft 8.9 m.

Type: Cargo ship. MMSI: 311044400.

Date/timePositionNaut miles runAvg speedWind from/ knotsBaromVisibWave heightAir tempDewpointWater temp
2018-Jun-23 00:56S 23°58' W 046°18'0 0.0
2018-Jun-23 00:26S 23°58' W 046°18'0 0.0
2018-Jun-22 22:50S 23°58' W 046°18'0 0.0
2018-Jun-22 22:29S 23°58' W 046°18'1 2.7
2018-Jun-22 21:59S 23°59' W 046°17'3 7.2
2018-Jun-22 21:30S 24°01' W 046°20'4 8.4
2018-Jun-22 21:00S 24°05' W 046°22'3 6.8
2018-Jun-22 20:30S 24°08' W 046°22'3 5.7
2018-Jun-22 19:59S 24°11' W 046°21'3 7.1
2018-Jun-22 19:30S 24°14' W 046°20'1 0.8
2018-Jun-22 18:52S 24°14' W 046°19'0 0.0
2018-Jun-22 18:28S 24°14' W 046°19'0 0.0
2018-Jun-22 17:58S 24°14' W 046°19'0 0.0
2018-Jun-22 17:28S 24°14' W 046°19'0 0.1
2018-Jun-22 16:58S 24°14' W 046°19'0 0.0
2018-Jun-22 16:28S 24°14' W 046°19'0 0.0
2018-Jun-22 15:58S 24°14' W 046°19'0 0.0
2018-Jun-22 15:28S 24°14' W 046°19'0 0.0
2018-Jun-22 14:58S 24°14' W 046°19'0 0.0
2018-Jun-22 14:28S 24°15' W 046°19'0 0.0
2018-Jun-22 13:58S 24°14' W 046°19'0 0.1
2018-Jun-22 13:28S 24°14' W 046°19'0 0.0
2018-Jun-22 12:58S 24°14' W 046°19'0 0.0
2018-Jun-22 12:22S 24°14' W 046°19'0 0.0
2018-Jun-22 11:58S 24°14' W 046°19'0 0.1
2018-Jun-22 11:22S 24°15' W 046°19'0 0.1
2018-Jun-22 10:58S 24°14' W 046°19'0 0.1
2018-Jun-22 10:28S 24°15' W 046°19'0 0.1
2018-Jun-22 09:58S 24°15' W 046°19'0 0.1
2018-Jun-22 09:28S 24°15' W 046°19'0 0.0
2018-Jun-22 08:46S 24°15' W 046°19'0 0.1
2018-Jun-22 08:28S 24°15' W 046°19'0 0.1
2018-Jun-22 07:55S 24°15' W 046°19'0 0.0
2018-Jun-22 07:28S 24°15' W 046°19'0 0.1
2018-Jun-22 06:58S 24°15' W 046°19'0 0.1
2018-Jun-22 06:28S 24°15' W 046°19'0 0.1
2018-Jun-22 05:58S 24°15' W 046°19'0 0.1
2018-Jun-22 05:28S 24°15' W 046°19'0 0.1
2018-Jun-22 04:58S 24°15' W 046°19'0 0.0
2018-Jun-22 04:22S 24°15' W 046°19'0 0.0
2018-Jun-22 03:58S 24°15' W 046°19'0 0.0
2018-Jun-22 03:28S 24°15' W 046°19'0 0.2
2018-Jun-22 02:58S 24°15' W 046°19'1 1.3
2018-Jun-22 02:27S 24°15' W 046°20'2 4.9
2018-Jun-22 02:00S 24°17' W 046°20'4 8.7
2018-Jun-22 01:31S 24°21' W 046°22'612.4
2018-Jun-22 01:00S 24°27' W 046°24'713.7
2018-Jun-22 00:29S 24°34' W 046°27'613.8
2018-Jun-22 00:01S 24°40' W 046°29'713.8
2018-Jun-21 23:30S 24°47' W 046°32'813.8
2018-Jun-21 22:53S 24°54' W 046°36'513.8
2018-Jun-21 22:30S 24°59' W 046°38'714.0
2018-Jun-21 22:00S 25°05' W 046°42'714.2
2018-Jun-21 21:31S 25°12' W 046°45'714.2
2018-Jun-21 21:00S 25°18' W 046°48'714.1
2018-Jun-21 20:30S 25°25' W 046°50'3213.9
2018-Jun-21 18:10S 25°57' W 046°59'1513.8
2018-Jun-21 17:05S 26°11' W 047°04'113.6
2018-Jun-21 17:00S 26°12' W 047°04'5313.6
2018-Jun-21 13:06S 27°02' W 047°24'213.0
2018-Jun-21 12:57S 27°04' W 047°25'  

Dump ship's entire track history